Last 30 Days

Kelseyville

Daily Data | America/Los_Angeles
as of 10/26/20 9:50 AM PDT
Date Daily Max Temp (°F) Time of Max Temp Daily Min Temp (°F) Time of Min Temp Daily Rain (In) Monthly Rain (In) Seasonal Rainfall (In) Wind Spd (mph) Daily Max Wind (mph) Time of Max Wind Max Wind Dir (°) Daily ETo (in) 7 Day ETo (in) Daily Solar Rad (Cal/cm2) Dew Pt (°F) Max RH (%) Min RH (%) Daily Leaf Wet Hrs (hrs) Hrs 70-85F (hrs) Hrs > 95F (hrs) Powdery Mildew Stress (pts) GDDs (DL) GDDs (Mx/Mn) Seas GDDs (DL) Seas GDDs (Smpl) Hrs <= 32F (hrs) Hrs <= 28F (hrs) Chilling <=45F (hrs) Chill Hrs 32-45F (hrs) Utah Chilling (Units) Degree Hrs (hrs) Bee Hrs Today (Hrs) Bat Volt Min Day (V)
10/25/20 70.4 1529 34.1 0748 0.00 0.00 0.04 4.3 22.8 1601 NE | 35 0.130 0.78 336 26.4 99 8 6.9 0.11 0.00 0 6.7 2.3 3,472 3,512 0.0 0.0 8.1 8.1 1.5 14.6 7.5 12.5
10/24/20 75.0 1435 36.2 0724 0.00 0.00 0.04 2.1 13.6 1549 WSW | 249 0.100 0.77 338 40.7 97 24 0.0 4.04 0.00 0 7.5 5.6 3,465 3,510 0.0 0.0 9.9 9.9 4.0 36.5 8.5 12.4
10/23/20 77.7 1434 34.6 0738 0.00 0.00 0.04 1.7 11.4 1445 SSW | 208 0.101 0.80 348 36.1 92 21 0.0 4.89 0.00 10 8.2 6.1 3,458 3,504 0.0 0.0 9.9 9.9 3.5 51.1 8.5 12.5
10/22/20 81.7 1559 39.7 0646 0.00 0.00 0.04 1.9 12.5 1602 ENE | 67 0.112 0.81 354 34.7 95 9 0.0 6.48 0.00 20 9.9 10.7 3,450 3,498 0.0 0.0 7.0 7.0 4.0 79.6 9.0 12.5
10/21/20 87.0 1641 40.2 0719 0.00 0.00 0.04 1.7 9.4 1121 NNE | 14 0.111 0.83 351 43.2 93 20 0.0 4.53 0.00 0 12.4 13.6 3,440 3,487 0.0 0.0 5.5 5.5 2.0 119.6 9.2 12.5
10/20/20 90.6 1535 39.6 0649 0.00 0.00 0.04 1.2 7.9 1148 NE | 40 0.105 0.84 351 42.5 94 15 0.0 2.65 0.00 0 13.4 15.1 3,427 3,474 0.0 0.0 6.1 6.1 1.5 141.7 9.2 12.5
10/19/20 88.2 1437 41.4 0730 0.00 0.00 0.04 2.0 10.5 1429 ENE | 59 0.119 0.86 353 42.9 91 19 0.0 2.96 0.00 0 13.2 14.8 3,414 3,458 0.0 0.0 3.6 3.6 1.5 138.2 9.4 12.5
10/18/20 90.8 1623 41.9 0659 0.00 0.00 0.04 1.9 9.6 1219 N | 11 0.123 0.85 362 42.3 90 17 0.0 3.13 0.00 0 13.8 16.3 3,401 3,444 0.0 0.0 4.4 4.4 1.5 151.4 9.4 12.5
10/17/20 95.0 1515 40.5 0723 0.00 0.00 0.04 1.8 11.4 1712 SW | 216 0.124 0.84 370 38.7 89 12 0.0 3.09 0.00 0 15.6 17.7 3,387 3,427 0.0 0.0 4.6 4.6 1.0 178.3 9.4 12.5
10/16/20 95.0 1656 40.6 0723 0.00 0.00 0.04 1.5 7.5 1249 NNE | 25 0.118 0.78 380 39.4 93 9 0.0 3.18 0.00 10 14.9 17.8 3,372 3,410 0.0 0.0 4.1 4.1 1.5 174.5 9.4 12.5
10/15/20 94.5 1613 42.9 0708 0.00 0.00 0.04 2.2 12.9 1659 E | 98 0.130 0.78 370 40.8 94 11 0.0 3.23 0.00 20 16.5 18.7 3,357 3,392 0.0 0.0 2.5 2.5 1.0 186.7 9.6 12.5
10/14/20 87.7 1554 45.2 0711 0.00 0.00 0.04 1.6 9.2 1530 ENE | 57 0.117 0.75 368 47.2 98 20 0.0 4.34 0.00 30 14.0 16.4 3,340 3,373 0.0 0.0 0.0 0.0 1.0 139.0 9.8 12.5
10/13/20 88.6 1553 42.0 0645 0.00 0.00 0.04 2.1 14.0 1613 W | 276 0.126 0.78 368 47.4 97 24 0.0 3.17 0.00 40 15.0 15.3 3,326 3,357 0.0 0.0 5.6 5.6 0.5 146.3 9.6 12.5
10/12/20 84.3 1653 38.8 0613 0.00 0.00 0.04 1.7 9.6 1223 NE | 44 0.115 0.79 378 43.8 96 17 0.0 7.08 0.00 50 11.8 11.6 3,311 3,341 0.0 0.0 5.6 5.6 2.0 100.1 9.3 12.5
10/11/20 78.3 1634 39.1 0639 0.00 0.00 0.04 1.9 11.0 1308 NNE | 26 0.109 0.82 378 43.7 100 18 9.1 5.20 0.00 30 9.0 8.7 3,299 3,330 0.0 0.0 4.4 4.4 2.5 56.9 9.0 12.5
10/10/20 70.4 1225 46.6 0059 0.00 0.00 0.04 2.9 16.7 1522 SSW | 203 0.068 0.86 210 51.6 97 61 2.2 0.03 0.00 40 8.0 8.5 3,290 3,321 0.0 0.0 0.0 0.0 2.0 18.6 10.0 12.5
10/9/20 77.7 1523 38.7 0554 0.00 0.00 0.04 2.4 12.3 1346 NW | 306 0.112 0.97 369 45.3 98 29 6.1 6.06 0.00 50 10.1 8.2 3,282 3,313 0.0 0.0 7.3 7.3 1.0 58.7 9.1 12.5
10/8/20 79.1 1335 42.9 0223 0.00 0.00 0.04 2.0 14.2 1533 SSW | 203 0.105 0.94 318 43.5 96 21 0.0 6.35 0.00 30 9.6 11.0 3,272 3,304 0.0 0.0 3.8 3.8 2.5 65.2 9.0 12.5
10/7/20 88.5 1501 35.3 0645 0.00 0.00 0.04 2.2 14.0 1724 SW | 224 0.147 0.93 435 35.7 87 9 0.0 3.34 0.00 10 13.1 11.9 3,263 3,293 0.0 0.0 7.3 7.3 2.0 133.1 9.4 12.5
10/6/20 90.5 1617 38.4 0717 0.00 0.00 0.04 1.9 10.7 1629 SSW | 197 0.138 0.92 415 38.6 90 12 0.0 3.10 0.00 20 14.2 14.5 3,250 3,282 0.0 0.0 6.3 6.3 2.0 156.7 9.6 12.5
10/5/20 91.7 1521 39.7 0710 0.00 0.00 0.04 2.1 14.5 1350 NE | 34 0.144 0.92 409 40.4 91 11 0.0 2.39 0.00 30 14.7 15.7 3,235 3,267 0.0 0.0 6.0 6.0 2.0 163.5 9.7 12.5
10/4/20 92.5 1547 39.8 0735 0.00 0.00 0.04 1.7 9.0 1346 NE | 53 0.149 0.92 450 37.0 85 8 0.0 3.02 0.00 40 15.3 16.2 3,221 3,251 0.0 0.0 4.3 4.3 1.5 181.7 9.9 12.5
10/3/20 96.2 1504 43.4 0713 0.00 0.00 0.04 2.6 22.6 1600 NNW | 342 0.175 0.96 423 39.5 89 11 0.0 1.74 0.92 50 19.2 19.8 3,205 3,235 0.0 0.0 1.6 1.6 0.5 247.1 10.0 12.5
10/2/20 90.6 1526 48.9 0740 0.00 0.00 0.04 1.0 7.0 1831 W | 267 0.083 0.92 256 48.2 88 22 0.0 3.25 0.00 60 15.6 19.8 3,186 3,215 0.0 0.0 0.0 0.0 0.5 148.5 9.9 12.5
10/1/20 90.9 1452 49.3 0712 0.00 0.00 0.04 0.9 5.3 1200 N | 10 0.091 0.99 276 48.8 86 17 0.0 3.52 0.00 70 16.1 20.1 3,171 3,196 0.0 0.0 0.0 0.0 0.0 149.5 10.1 12.5
9/30/20 98.2 1636 45.8 0626 0.00 0.00 0.04 1.6 7.5 1435 NE | 39 0.139 1.06 415 45.0 88 12 0.0 2.82 2.52 80 18.9 22.0 3,155 3,176 0.0 0.0 0.0 0.0 0.0 225.1 10.2 12.5
9/29/20 95.8 1551 45.8 0643 0.00 0.00 0.04 1.7 12.5 1529 NE | 52 0.135 1.08 371 44.2 83 12 0.0 3.02 0.37 90 16.2 20.8 3,136 3,154 0.0 0.0 0.0 0.0 0.5 178.0 10.1 12.6
9/28/20 96.0 1536 52.7 0059 0.00 0.00 0.04 2.4 18.2 0208 ENE | 69 0.144 1.11 376 39.6 70 10 0.0 11.32 0.14 100 25.4 24.3 3,119 3,133 0.0 0.0 0.0 0.0 0.0 292.8 11.3 12.5
9/27/20 95.6 1422 45.4 0701 0.00 0.00 0.04 3.4 16.7 1323 ENE | 71 0.191 1.12 457 43.0 98 9 3.0 6.56 0.11 100 22.6 20.5 3,094 3,108 0.0 0.0 0.0 0.0 -16.0 291.2 10.4 12.5
9/26/20 84.2 1446 48.8 0656 0.00 0.00 0.04 2.8 15.1 1600 NW | 321 0.140 1.07 407 51.6 95 32 0.0 9.28 0.00 100 16.0 16.5 3,071 3,088 0.0 0.0 0.0 0.0 0.5 128.0 10.8 12.5
Max 98.2 - 52.7 - 0.00 0.00 - 4.3 22.8 - - 0.191 - 457 51.6 100 61 9.1 11.32 2.52 100 25.4 24.3 - - 0.0 0.0 9.9 9.9 4.0 292.8 11.3 12.6
Avg - - - - - 0.00 - 2.0 - - - - - - 42.1 - - - 4.13 0.14 - 13.9 14.7 - - 0.0 0.0 3.9 3.9 0.9 - 9.5 -
Min 70.4 - 34.1 - 0.00 0.00 - 0.9 5.3 - - 0.068 - 210 26.4 70 8 0.0 0.03 0.00 0 6.7 2.3 - - 0.0 0.0 0.0 0.0 -16.0 14.6 7.5 12.4
Total - - - - - - - - - - - - - - - - - - 123.88 4.07 - 416.7 440.5 - - 0.0 0.0 117.8 117.8 28.0 - 286.3 -